Time;durP1;ratioP1;P1;durP2;ratioP2;P2;SDS_P1;SDS_P2;PMS_P1;PMS_P2;Temp;Humidity;BMP_temperature;BMP_pressure;BME280_temperature;BME280_humidity;BME280_pressure;Samples;Min_cycle;Max_cycle;Signal;HPM_P1;HPM_P2
2021/07/14 00:00:15;;;;;;;;;;;;;;;29.97;39.94;100578.03;5079196;28;870;-23
2021/07/14 00:02:40;;;;;;;;;;;;;;;29.98;39.92;100582.41;5079822;28;712;-24
2021/07/14 00:05:08;;;;;;;;;;;;;;;29.91;40.13;100579.69;5078468;28;1093;-42
2021/07/14 00:07:33;;;;;;;;;;;;;;;29.97;40.05;100578.03;5078611;28;859;-21
2021/07/14 00:09:58;;;;;;;;;;;;;;;30.00;39.96;100585.75;5078862;28;1913;-42
2021/07/14 00:12:25;;;;;;;;;;;;;;;29.96;40.17;100583.66;5078936;28;792;-21
2021/07/14 00:15:04;;;;;;;;;;;;;;;29.96;40.17;100589.09;5078485;28;840;-37
2021/07/14 00:17:45;;;;;;;;;;;;;;;29.98;40.02;100587.03;5079154;28;800;-42
2021/07/14 00:22:54;;;;;;;;;;;;;;;29.93;40.22;100593.03;5078052;28;605;-42
2021/07/14 00:25:20;;;;;;;;;;;;;;;29.96;40.22;100595.38;5078736;28;803;-25
2021/07/14 00:27:49;;;;;;;;;;;;;;;30.01;40.10;100594.75;5078490;28;819;-22
2021/07/14 00:30:16;;;;;;;;;;;;;;;29.93;40.40;100593.88;5078412;28;1894;-42
2021/07/14 00:32:41;;;;;;;;;;;;;;;29.99;39.90;100592.25;5078589;28;800;-22
2021/07/14 00:35:07;;;;;;;;;;;;;;;29.97;40.37;100591.59;5077814;28;958;-26
2021/07/14 00:37:33;;;;;;;;;;;;;;;30.00;40.02;100590.34;5077767;28;832;-22
2021/07/14 00:40:01;;;;;;;;;;;;;;;30.02;40.04;100589.09;5078179;28;844;-24
2021/07/14 00:42:26;;;;;;;;;;;;;;;29.97;40.28;100593.47;5078368;28;729;-35
2021/07/14 00:44:52;;;;;;;;;;;;;;;29.94;40.40;100594.72;5078166;28;784;-43
2021/07/14 00:47:26;;;;;;;;;;;;;;;30.00;40.21;100591.19;5077665;28;733;-42
2021/07/14 00:49:51;;;;;;;;;;;;;;;29.85;40.51;100591.38;5077849;28;1976;-24
2021/07/14 00:52:16;;;;;;;;;;;;;;;30.01;40.10;100587.41;5060169;28;891;-40
2021/07/14 00:54:42;;;;;;;;;;;;;;;30.02;40.19;100586.41;5077973;28;776;-23
2021/07/14 00:57:08;;;;;;;;;;;;;;;29.93;40.40;100596.59;5077958;28;1133;-42
2021/07/14 00:59:33;;;;;;;;;;;;;;;30.01;40.14;100592.03;5077897;28;810;-21
2021/07/14 01:01:58;;;;;;;;;;;;;;;29.99;40.27;100594.09;5059817;28;812;-43
2021/07/14 01:04:25;;;;;;;;;;;;;;;29.98;40.35;100593.25;5077409;28;959;-22
2021/07/14 01:06:54;;;;;;;;;;;;;;;29.95;40.23;100593.69;5059584;28;1289;-25
2021/07/14 01:09:31;;;;;;;;;;;;;;;29.96;40.24;100586.38;5077548;28;758;-43
2021/07/14 01:12:01;;;;;;;;;;;;;;;29.89;40.31;100599.94;5060023;28;1906;-36
2021/07/14 01:14:35;;;;;;;;;;;;;;;29.94;40.36;100600.16;5077422;28;793;-30
2021/07/14 01:17:02;;;;;;;;;;;;;;;29.98;40.13;100598.69;5060937;28;848;-22
2021/07/14 01:19:46;;;;;;;;;;;;;;;29.88;40.48;100598.28;5059656;28;955;-42
2021/07/14 01:22:22;;;;;;;;;;;;;;;29.86;40.66;100595.78;5077261;28;852;-22
2021/07/14 01:25:04;;;;;;;;;;;;;;;29.93;40.48;100588.47;5059713;28;859;-41
2021/07/14 01:27:34;;;;;;;;;;;;;;;29.90;40.71;100588.88;5059387;28;808;-22
2021/07/14 01:29:59;;;;;;;;;;;;;;;29.89;40.75;100587.22;5059823;28;1959;-42
2021/07/14 01:32:26;;;;;;;;;;;;;;;29.89;40.53;100581.78;5059015;28;744;-22
2021/07/14 01:34:53;;;;;;;;;;;;;;;29.90;40.47;100588.88;5059048;28;926;-22
2021/07/14 01:37:21;;;;;;;;;;;;;;;29.97;40.41;100583.47;5059565;28;752;-43
2021/07/14 01:39:47;;;;;;;;;;;;;;;29.90;40.82;100585.31;5059271;28;783;-27
2021/07/14 01:42:13;;;;;;;;;;;;;;;29.86;41.10;100581.38;5059401;28;811;-22
2021/07/14 01:44:38;;;;;;;;;;;;;;;29.91;40.66;100584.28;5076486;28;807;-22
2021/07/14 01:47:03;;;;;;;;;;;;;;;29.90;40.71;100585.31;5077285;28;791;-43
2021/07/14 01:49:31;;;;;;;;;;;;;;;29.84;40.78;100591.56;5076448;28;990;-43
2021/07/14 01:51:57;;;;;;;;;;;;;;;29.90;40.63;100596.16;5076175;28;1901;-43
2021/07/14 01:54:23;;;;;;;;;;;;;;;29.87;40.60;100599.28;5059512;28;792;-21
2021/07/14 01:56:48;;;;;;;;;;;;;;;29.88;40.68;100595.56;5077057;28;1098;-21
2021/07/14 01:59:14;;;;;;;;;;;;;;;29.90;40.65;100597.00;5058722;28;896;-40
2021/07/14 02:01:40;;;;;;;;;;;;;;;29.85;40.87;100593.22;5058866;28;756;-43
2021/07/14 02:06:49;;;;;;;;;;;;;;;29.94;40.58;100600.16;5076386;28;676;-43
2021/07/14 02:09:14;;;;;;;;;;;;;;;29.90;40.57;100607.00;5058892;28;783;-22
2021/07/14 02:11:40;;;;;;;;;;;;;;;29.86;40.74;100603.91;5076502;28;1914;-22
2021/07/14 02:14:06;;;;;;;;;;;;;;;29.86;40.83;100595.78;5058250;28;874;-23
2021/07/14 02:16:31;;;;;;;;;;;;;;;29.85;40.81;100604.94;5076746;28;784;-23
2021/07/14 02:18:56;;;;;;;;;;;;;;;29.82;41.03;100598.06;5075657;28;990;-22
2021/07/14 02:21:22;;;;;;;;;;;;;;;29.82;40.91;100600.75;5076439;28;772;-22
2021/07/14 02:23:47;;;;;;;;;;;;;;;29.90;40.58;100601.59;5076437;28;882;-22
2021/07/14 02:26:13;;;;;;;;;;;;;;;29.91;40.66;100603.28;5076242;28;799;-42
2021/07/14 02:28:38;;;;;;;;;;;;;;;29.87;40.82;100599.28;5075856;28;830;-42
2021/07/14 02:31:03;;;;;;;;;;;;;;;29.85;40.84;100585.94;5075861;28;1953;-22
2021/07/14 02:33:29;;;;;;;;;;;;;;;29.87;41.03;100596.59;5076064;28;973;-22
2021/07/14 02:35:56;;;;;;;;;;;;;;;29.92;40.89;100588.66;5076183;28;768;-42
2021/07/14 02:38:38;;;;;;;;;;;;;;;29.89;40.70;100584.50;5058603;28;760;-40
2021/07/14 02:41:06;;;;;;;;;;;;;;;29.86;40.74;100587.63;5058556;28;788;-21
2021/07/14 02:43:34;;;;;;;;;;;;;;;29.84;40.81;100578.84;5058214;28;879;-43
2021/07/14 02:46:04;;;;;;;;;;;;;;;29.90;40.75;100588.03;5076202;28;772;-22
2021/07/14 02:48:29;;;;;;;;;;;;;;;29.89;40.60;100578.22;5076254;28;990;-23
2021/07/14 02:50:55;;;;;;;;;;;;;;;29.88;40.80;100576.56;5057583;28;1890;-23
2021/07/14 02:53:22;;;;;;;;;;;;;;;29.88;41.06;100579.28;5076156;28;712;-22
2021/07/14 02:55:50;;;;;;;;;;;;;;;29.88;41.03;100585.53;5058411;28;914;-41
2021/07/14 02:58:16;;;;;;;;;;;;;;;29.89;40.87;100589.94;5075988;28;1760;-22
2021/07/14 03:00:41;;;;;;;;;;;;;;;29.81;41.08;100580.09;5075934;28;760;-22
2021/07/14 03:03:06;;;;;;;;;;;;;;;29.88;40.79;100579.28;5058449;28;812;-43
2021/07/14 03:05:32;;;;;;;;;;;;;;;29.78;40.96;100576.97;5075222;28;962;-21
2021/07/14 03:07:58;;;;;;;;;;;;;;;29.84;40.86;100578.84;5058799;28;753;-25
2021/07/14 03:10:24;;;;;;;;;;;;;;;29.88;40.70;100584.72;5057970;28;1906;-21
2021/07/14 03:12:50;;;;;;;;;;;;;;;29.45;39.10;100576.66;5057923;28;792;-34
2021/07/14 03:15:16;;;;;;;;;;;;;;;29.36;39.05;100577.88;5058403;28;840;-28
2021/07/14 03:17:42;;;;;;;;;;;;;;;29.11;39.30;100581.09;5075008;28;1088;-27
2021/07/14 03:20:08;;;;;;;;;;;;;;;29.09;39.84;100586.69;5075018;28;1060;-34
2021/07/14 03:22:35;;;;;;;;;;;;;;;28.99;40.88;100590.81;5074878;28;1068;-29
2021/07/14 03:25:00;;;;;;;;;;;;;;;29.03;40.93;100595.63;5057591;28;782;-39
2021/07/14 03:27:26;;;;;;;;;;;;;;;29.07;40.92;100587.94;5057760;28;1246;-28
2021/07/14 03:29:51;;;;;;;;;;;;;;;25.01;47.66;100583.94;5075834;28;831;-28
2021/07/14 03:32:16;;;;;;;;;;;;;;;21.23;53.03;100583.09;5057840;28;1909;-23
2021/07/14 03:34:42;;;;;;;;;;;;;;;19.92;55.43;100570.97;5074838;28;912;-26
2021/07/14 03:37:07;;;;;;;;;;;;;;;19.23;55.77;100579.66;5057837;28;1089;-27
2021/07/14 03:39:33;;;;;;;;;;;;;;;18.67;56.79;100566.56;5058021;28;783;-28
2021/07/14 03:41:58;;;;;;;;;;;;;;;18.23;56.67;100575.50;5075887;28;731;-40
2021/07/14 03:44:23;;;;;;;;;;;;;;;17.88;57.37;100571.25;5057776;28;846;-40
2021/07/14 03:46:49;;;;;;;;;;;;;;;19.16;57.19;100582.00;5057870;28;902;-23
2021/07/14 03:49:14;;;;;;;;;;;;;;;23.51;46.02;100596.41;5074800;28;954;-23
2021/07/14 03:51:42;;;;;;;;;;;;;;;25.21;42.32;100602.38;5057526;28;1910;-38
2021/07/14 03:54:08;;;;;;;;;;;;;;;26.09;40.86;100606.81;5058663;28;847;-43
2021/07/14 03:56:33;;;;;;;;;;;;;;;26.51;42.67;100615.44;5078805;28;758;-42
2021/07/14 03:58:59;;;;;;;;;;;;;;;26.81;43.68;100619.25;5061156;28;1099;-27
2021/07/14 04:01:24;;;;;;;;;;;;;;;27.05;44.72;100617.31;5060990;28;760;-45
2021/07/14 04:03:49;;;;;;;;;;;;;;;27.25;43.88;100623.00;5060940;28;1026;-24
2021/07/14 04:06:15;;;;;;;;;;;;;;;27.43;44.22;100621.75;5060915;28;816;-26
2021/07/14 04:08:42;;;;;;;;;;;;;;;27.59;43.41;100628.84;5078823;28;819;-45
2021/07/14 04:11:07;;;;;;;;;;;;;;;27.61;44.47;100627.59;5078559;28;1910;-47
2021/07/14 04:13:33;;;;;;;;;;;;;;;27.79;44.35;100630.97;5078656;28;931;-28
2021/07/14 04:15:58;;;;;;;;;;;;;;;27.98;44.49;100632.19;5078644;28;804;-45
2021/07/14 04:18:23;;;;;;;;;;;;;;;27.96;44.52;100634.28;5078529;28;962;-47
2021/07/14 04:20:48;;;;;;;;;;;;;;;28.01;45.06;100625.59;5078204;28;982;-31
2021/07/14 04:23:14;;;;;;;;;;;;;;;28.15;44.93;100634.66;5078514;28;566;-26
2021/07/14 04:25:39;;;;;;;;;;;;;;;28.24;44.78;100630.81;5078362;28;756;-34
2021/07/14 04:28:05;;;;;;;;;;;;;;;28.35;44.36;100632.16;5078383;28;775;-49
2021/07/14 04:30:31;;;;;;;;;;;;;;;28.42;43.66;100633.06;5078347;28;1969;-29
2021/07/14 04:32:56;;;;;;;;;;;;;;;28.58;44.33;100625.69;5078575;28;834;-28
2021/07/14 04:35:21;;;;;;;;;;;;;;;28.41;45.45;100628.69;5078066;28;1010;-29
2021/07/14 04:37:49;;;;;;;;;;;;;;;28.54;45.16;100635.25;5078424;28;775;-28
2021/07/14 04:40:15;;;;;;;;;;;;;;;28.66;44.99;100628.25;5077976;28;537;-46
2021/07/14 04:42:40;;;;;;;;;;;;;;;28.61;45.45;100630.75;5076935;28;835;-42
2021/07/14 04:45:05;;;;;;;;;;;;;;;28.66;45.83;100644.50;5077840;28;780;-28
2021/07/14 04:47:31;;;;;;;;;;;;;;;28.62;45.71;100642.38;5078247;28;737;-27
2021/07/14 04:49:56;;;;;;;;;;;;;;;28.81;45.91;100635.47;5077014;28;962;-29
2021/07/14 04:52:21;;;;;;;;;;;;;;;28.88;45.54;100640.91;5077357;28;816;-26
2021/07/14 04:54:47;;;;;;;;;;;;;;;28.88;45.89;100640.91;5077728;28;816;-33
2021/07/14 04:57:12;;;;;;;;;;;;;;;29.03;45.19;100651.69;5077743;28;1216;-42
2021/07/14 04:59:37;;;;;;;;;;;;;;;28.93;45.55;100650.09;5077819;28;832;-28
2021/07/14 05:02:03;;;;;;;;;;;;;;;28.81;46.23;100654.41;5077909;28;780;-28
2021/07/14 05:04:29;;;;;;;;;;;;;;;28.94;45.86;100649.09;5076356;28;962;-33
2021/07/14 05:06:54;;;;;;;;;;;;;;;29.03;45.70;100648.97;5076250;28;846;-26
2021/07/14 05:09:19;;;;;;;;;;;;;;;29.08;45.61;100641.06;5078122;28;831;-30
2021/07/14 05:11:44;;;;;;;;;;;;;;;29.13;45.66;100645.91;5076870;28;1976;-30
2021/07/14 05:14:10;;;;;;;;;;;;;;;29.16;46.12;100645.50;5077404;28;535;-49
2021/07/14 05:16:35;;;;;;;;;;;;;;;28.65;47.85;100644.69;5076998;28;872;-29
2021/07/14 05:19:04;;;;;;;;;;;;;;;29.13;47.15;100640.47;5076764;28;1035;-37
2021/07/14 05:21:29;;;;;;;;;;;;;;;29.27;46.66;100638.66;5077450;28;798;-31
2021/07/14 05:23:54;;;;;;;;;;;;;;;29.33;46.31;100643.28;5077591;28;898;-31
2021/07/14 05:26:20;;;;;;;;;;;;;;;29.35;46.50;100646.63;5077113;28;822;-36
2021/07/14 05:28:45;;;;;;;;;;;;;;;29.36;46.17;100645.59;5077589;28;829;-33
2021/07/14 05:31:11;;;;;;;;;;;;;;;29.39;45.90;100639.78;5076640;28;1915;-31
2021/07/14 05:33:36;;;;;;;;;;;;;;;29.53;45.39;100643.38;5076495;28;954;-31
2021/07/14 05:36:01;;;;;;;;;;;;;;;29.50;45.40;100645.66;5077173;28;798;-28
2021/07/14 05:38:28;;;;;;;;;;;;;;;29.51;45.18;100647.34;5077259;28;799;-31
2021/07/14 05:40:54;;;;;;;;;;;;;;;29.62;44.75;100649.50;5076859;28;843;-42
2021/07/14 05:43:19;;;;;;;;;;;;;;;29.64;44.48;100650.13;5076133;28;828;-34
2021/07/14 05:45:44;;;;;;;;;;;;;;;29.61;44.37;100655.97;5077163;28;827;-42
2021/07/14 05:48:10;;;;;;;;;;;;;;;29.62;44.30;100656.78;5076878;28;729;-42
2021/07/14 05:50:35;;;;;;;;;;;;;;;29.56;44.51;100653.00;5076898;28;1921;-30
2021/07/14 05:53:00;;;;;;;;;;;;;;;29.59;44.29;100658.03;5077085;28;815;-29
2021/07/14 05:55:26;;;;;;;;;;;;;;;29.58;44.03;100659.03;5076240;28;842;-27
2021/07/14 05:57:53;;;;;;;;;;;;;;;29.61;42.82;100657.84;5076996;28;1124;-29
2021/07/14 06:00:18;;;;;;;;;;;;;;;29.51;42.83;100659.00;5076816;28;819;-30
2021/07/14 06:02:44;;;;;;;;;;;;;;;29.51;42.88;100660.88;5076514;28;783;-33
2021/07/14 06:05:10;;;;;;;;;;;;;;;29.60;42.91;100664.28;5075991;28;966;-27
2021/07/14 06:07:35;;;;;;;;;;;;;;;29.67;42.69;100657.00;5075999;28;821;-25
2021/07/14 06:10:01;;;;;;;;;;;;;;;29.80;42.32;100659.78;5076984;28;1964;-27
2021/07/14 06:12:26;;;;;;;;;;;;;;;29.80;42.26;100665.19;5076831;28;771;-28
2021/07/14 06:14:51;;;;;;;;;;;;;;;29.90;41.90;100662.09;5076432;28;748;-28
2021/07/14 06:17:16;;;;;;;;;;;;;;;29.91;41.64;100665.66;5076125;28;755;-30
2021/07/14 06:19:42;;;;;;;;;;;;;;;29.90;41.75;100667.53;5076300;28;962;-35
2021/07/14 06:22:07;;;;;;;;;;;;;;;29.88;41.81;100671.47;5073011;28;977;-27
2021/07/14 06:24:33;;;;;;;;;;;;;;;29.88;41.85;100674.19;5076018;28;843;-35
2021/07/14 06:26:58;;;;;;;;;;;;;;;30.04;41.94;100671.13;5076259;28;872;-33
2021/07/14 06:29:23;;;;;;;;;;;;;;;29.96;42.13;100675.88;5070443;28;812;-28
2021/07/14 06:31:51;;;;;;;;;;;;;;;30.01;42.17;100671.50;5056395;28;1910;-36
2021/07/14 06:34:17;;;;;;;;;;;;;;;29.99;42.08;100672.75;5066947;28;872;-25
2021/07/14 06:36:42;;;;;;;;;;;;;;;29.99;42.33;100670.03;5075968;28;759;-29
2021/07/14 06:39:07;;;;;;;;;;;;;;;30.00;42.26;100666.28;5076579;28;870;-25
2021/07/14 06:41:32;;;;;;;;;;;;;;;30.03;42.41;100669.41;5075782;28;800;-26
2021/07/14 06:44:01;;;;;;;;;;;;;;;29.97;42.55;100666.69;5075554;28;792;-28
2021/07/14 06:46:27;;;;;;;;;;;;;;;29.94;39.61;100667.94;5075376;28;875;-27
2021/07/14 06:48:52;;;;;;;;;;;;;;;29.90;40.52;100667.53;5075990;28;903;-39
2021/07/14 06:51:17;;;;;;;;;;;;;;;29.98;40.61;100662.97;5076025;28;1961;-34
2021/07/14 06:53:42;;;;;;;;;;;;;;;30.12;40.80;100670.06;5075907;28;929;-27
2021/07/14 06:56:08;;;;;;;;;;;;;;;30.08;40.70;100670.69;5076032;28;807;-34
2021/07/14 06:58:36;;;;;;;;;;;;;;;30.13;40.69;100670.91;5075401;28;1342;-24
2021/07/14 07:01:02;;;;;;;;;;;;;;;30.17;40.48;100664.88;5076641;28;767;-40
2021/07/14 07:03:27;;;;;;;;;;;;;;;30.19;40.47;100680.94;5075612;28;950;-39
2021/07/14 07:05:52;;;;;;;;;;;;;;;30.18;40.38;100682.81;5075639;28;920;-40
2021/07/14 07:08:18;;;;;;;;;;;;;;;30.11;39.52;100678.41;5076273;28;800;-41
2021/07/14 07:10:44;;;;;;;;;;;;;;;30.15;40.25;100680.50;5075810;28;1976;-35
2021/07/14 07:13:09;;;;;;;;;;;;;;;30.08;40.42;100679.66;5074834;28;829;-29
2021/07/14 07:15:34;;;;;;;;;;;;;;;30.07;40.57;100680.69;5076222;28;740;-35
2021/07/14 07:18:00;;;;;;;;;;;;;;;30.10;40.64;100680.28;5076120;28;811;-28
2021/07/14 07:20:25;;;;;;;;;;;;;;;30.16;40.56;100675.94;5075634;28;994;-30
2021/07/14 07:22:50;;;;;;;;;;;;;;;30.20;40.58;100685.34;5076166;28;747;-31
2021/07/14 07:25:16;;;;;;;;;;;;;;;30.29;40.55;100692.28;5074365;28;1416;-30
2021/07/14 07:27:42;;;;;;;;;;;;;;;30.25;40.74;100680.13;5075695;28;822;-32
2021/07/14 07:30:07;;;;;;;;;;;;;;;30.30;41.00;100683.06;5078646;28;1901;-34
2021/07/14 07:32:33;;;;;;;;;;;;;;;30.38;41.15;100684.75;5079274;28;756;-28
2021/07/14 07:34:58;;;;;;;;;;;;;;;30.39;40.95;100683.72;5079264;28;951;-24
2021/07/14 07:37:23;;;;;;;;;;;;;;;30.46;40.99;100693.75;5078900;28;896;-24
2021/07/14 07:39:49;;;;;;;;;;;;;;;30.51;41.07;100685.81;5079223;28;799;-25
2021/07/14 07:42:15;;;;;;;;;;;;;;;30.45;41.00;100681.22;5079859;28;945;-29
2021/07/14 07:44:40;;;;;;;;;;;;;;;30.51;40.97;100689.34;5079416;28;748;-29
2021/07/14 07:47:05;;;;;;;;;;;;;;;30.45;41.01;100683.94;5079114;28;846;-24
2021/07/14 07:49:30;;;;;;;;;;;;;;;30.59;41.01;100691.03;5078487;28;998;-25
2021/07/14 07:51:56;;;;;;;;;;;;;;;30.48;41.37;100681.63;5079350;28;1901;-29
2021/07/14 07:54:21;;;;;;;;;;;;;;;30.50;41.21;100678.69;5078917;28;804;-25
2021/07/14 07:56:46;;;;;;;;;;;;;;;30.53;41.47;100694.59;5079333;28;1527;-25
2021/07/14 07:59:11;;;;;;;;;;;;;;;30.48;41.68;100686.22;5079475;28;756;-28
2021/07/14 08:01:37;;;;;;;;;;;;;;;30.47;41.93;100676.41;5079183;28;769;-32
2021/07/14 08:04:03;;;;;;;;;;;;;;;25.18;50.90;100681.63;5077895;28;909;-24
2021/07/14 08:06:28;;;;;;;;;;;;;;;22.90;53.61;100667.84;5078976;28;836;-32
2021/07/14 08:08:54;;;;;;;;;;;;;;;22.90;57.97;100677.72;5078431;28;803;-28
2021/07/14 08:11:19;;;;;;;;;;;;;;;22.86;58.54;100663.78;5078641;28;1983;-24
2021/07/14 08:13:44;;;;;;;;;;;;;;;22.79;59.16;100654.69;5079134;28;764;-23
2021/07/14 08:16:09;;;;;;;;;;;;;;;22.65;59.63;100658.78;5077892;28;809;-24
2021/07/14 08:18:35;;;;;;;;;;;;;;;22.55;60.44;100662.34;5078248;28;954;-31
2021/07/14 08:21:00;;;;;;;;;;;;;;;22.47;61.11;100659.59;5078623;28;761;-24
2021/07/14 08:23:25;;;;;;;;;;;;;;;22.30;61.32;100654.09;5078454;28;815;-30
2021/07/14 08:25:51;;;;;;;;;;;;;;;22.23;61.79;100656.53;5079056;28;780;-22
2021/07/14 08:28:17;;;;;;;;;;;;;;;22.22;61.91;100665.56;5077385;28;977;-22
2021/07/14 08:30:42;;;;;;;;;;;;;;;22.21;62.22;100663.88;5078423;28;1966;-22
2021/07/14 08:33:07;;;;;;;;;;;;;;;22.18;62.48;100668.69;5078857;28;812;-23
2021/07/14 08:35:32;;;;;;;;;;;;;;;22.16;62.78;100666.16;5077376;28;1002;-27
2021/07/14 08:37:58;;;;;;;;;;;;;;;22.15;62.98;100656.47;5078017;28;769;-24
2021/07/14 08:40:23;;;;;;;;;;;;;;;22.02;62.88;100662.19;5077803;28;793;-27
2021/07/14 08:42:49;;;;;;;;;;;;;;;22.17;62.91;100661.66;5078317;28;807;-23
2021/07/14 08:45:15;;;;;;;;;;;;;;;22.04;63.35;100656.69;5078313;28;736;-29
2021/07/14 08:47:41;;;;;;;;;;;;;;;22.09;63.63;100660.56;5060577;28;780;-24
2021/07/14 08:50:07;;;;;;;;;;;;;;;22.12;63.64;100656.75;5078096;28;1910;-23
2021/07/14 08:52:32;;;;;;;;;;;;;;;22.02;63.83;100652.28;5077733;28;828;-25
2021/07/14 08:54:58;;;;;;;;;;;;;;;21.93;63.93;100649.69;5077296;28;824;-23
2021/07/14 08:57:23;;;;;;;;;;;;;;;21.86;63.59;100641.41;5077962;28;1095;-22
2021/07/14 08:59:49;;;;;;;;;;;;;;;21.71;64.02;100646.38;5078024;28;803;-28
2021/07/14 09:02:14;;;;;;;;;;;;;;;21.64;63.96;100649.66;5078115;28;843;-23
2021/07/14 09:04:40;;;;;;;;;;;;;;;21.57;64.33;100642.38;5077398;28;1025;-23
2021/07/14 09:07:08;;;;;;;;;;;;;;;22.14;67.16;100642.22;5077756;28;799;-24
2021/07/14 09:09:35;;;;;;;;;;;;;;;25.14;55.15;100650.66;5077628;28;740;-23
2021/07/14 09:12:01;;;;;;;;;;;;;;;23.56;57.06;100654.00;5077527;28;1906;-23
2021/07/14 09:14:27;;;;;;;;;;;;;;;21.98;61.64;100650.06;5078164;28;728;-31
2021/07/14 09:16:52;;;;;;;;;;;;;;;21.55;62.42;100647.03;5077234;28;873;-26
2021/07/14 09:19:18;;;;;;;;;;;;;;;21.48;62.84;100638.75;5077266;28;991;-27
2021/07/14 09:21:44;;;;;;;;;;;;;;;21.29;62.91;100630.66;5059895;28;1295;-30
2021/07/14 09:24:24;;;;;;;;;;;;;;;21.15;62.51;100631.94;5076352;28;771;-25
2021/07/14 09:26:50;;;;;;;;;;;;;;;24.27;54.87;100646.66;5077071;28;823;-28
2021/07/14 09:29:15;;;;;;;;;;;;;;;23.09;56.73;100644.47;5059628;28;990;-33
2021/07/14 09:31:44;;;;;;;;;;;;;;;21.63;61.20;100631.91;5058670;28;1909;-25
2021/07/14 09:34:30;;;;;;;;;;;;;;;21.36;62.06;100635.41;5077089;28;927;-24
2021/07/14 09:36:56;;;;;;;;;;;;;;;24.70;53.51;100628.53;5076240;28;1965;-25
2021/07/14 09:39:47;;;;;;;;;;;;;;;22.68;58.19;100628.97;5077208;28;803;-28
2021/07/14 09:42:13;;;;;;;;;;;;;;;21.39;61.88;100629.75;5073505;28;1624;-24
2021/07/14 09:44:47;;;;;;;;;;;;;;;21.06;62.47;100631.97;5076274;28;849;-31
2021/07/14 09:47:18;;;;;;;;;;;;;;;21.81;65.84;100632.97;5077361;28;779;-31
2021/07/14 09:49:43;;;;;;;;;;;;;;;24.94;52.08;100640.28;5076588;28;951;-24
2021/07/14 09:52:09;;;;;;;;;;;;;;;22.17;59.59;100635.69;5075980;28;1902;-33
2021/07/14 09:54:34;;;;;;;;;;;;;;;21.37;61.60;100629.09;5077092;28;732;-34
2021/07/14 09:57:29;;;;;;;;;;;;;;;22.64;62.01;100639.16;5058801;28;1173;-24
2021/07/14 09:59:56;;;;;;;;;;;;;;;24.44;52.84;100640.28;5049217;28;1218;-31
2021/07/14 10:02:21;;;;;;;;;;;;;;;21.88;60.55;100639.41;5075509;28;840;-32
2021/07/14 10:04:47;;;;;;;;;;;;;;;21.18;62.27;100636.19;5076250;28;951;-35
2021/07/14 10:07:18;;;;;;;;;;;;;;;20.98;62.60;100640.75;5076063;28;838;-32
2021/07/14 10:09:44;;;;;;;;;;;;;;;22.60;61.56;100654.72;5059126;28;1493;-29
2021/07/14 10:12:28;;;;;;;;;;;;;;;24.89;52.58;100650.69;5076020;28;1913;-30
2021/07/14 10:14:57;;;;;;;;;;;;;;;21.67;61.24;100645.00;5076415;28;803;-34
2021/07/14 10:17:39;;;;;;;;;;;;;;;21.21;62.19;100630.53;5069627;28;1450;-28
2021/07/14 10:20:25;;;;;;;;;;;;;;;23.09;59.92;100639.13;5070157;28;975;-31
2021/07/14 10:22:51;;;;;;;;;;;;;;;23.66;55.74;100643.13;5075256;28;817;-33
2021/07/14 10:25:17;;;;;;;;;;;;;;;21.73;61.93;100642.56;5075965;28;752;-35
2021/07/14 10:27:43;;;;;;;;;;;;;;;21.41;62.61;100639.34;5075762;28;814;-33
2021/07/14 10:30:08;;;;;;;;;;;;;;;21.13;63.51;100627.75;5057487;28;835;-26
2021/07/14 10:32:34;;;;;;;;;;;;;;;20.99;63.71;100629.91;5057735;28;1901;-34
2021/07/14 10:34:59;;;;;;;;;;;;;;;22.54;62.63;100638.38;5057287;28;943;-24
2021/07/14 10:37:24;;;;;;;;;;;;;;;25.13;52.46;100637.38;5056753;28;864;-27
2021/07/14 10:39:50;;;;;;;;;;;;;;;21.94;59.87;100632.63;5057673;28;764;-23
2021/07/14 10:42:15;;;;;;;;;;;;;;;21.17;62.08;100613.94;5057786;28;792;-25
2021/07/14 10:44:40;;;;;;;;;;;;;;;20.88;63.05;100619.34;5057001;28;807;-27
2021/07/14 10:47:06;;;;;;;;;;;;;;;20.74;63.29;100626.81;5040322;28;1351;-27
2021/07/14 10:49:31;;;;;;;;;;;;;;;20.73;63.29;100629.63;5074406;28;821;-31
2021/07/14 10:51:56;;;;;;;;;;;;;;;20.76;63.69;100619.50;5057590;28;1902;-32
2021/07/14 10:54:22;;;;;;;;;;;;;;;21.05;65.85;100625.81;5056842;28;1295;-27
2021/07/14 10:56:48;;;;;;;;;;;;;;;24.09;55.71;100626.09;5057667;28;1179;-31
2021/07/14 10:59:13;;;;;;;;;;;;;;;22.36;58.96;100628.50;5075293;28;799;-33
2021/07/14 11:01:46;;;;;;;;;;;;;;;21.26;61.46;100627.41;5056788;28;809;-29
2021/07/14 11:04:12;;;;;;;;;;;;;;;20.83;62.58;100633.16;5077588;28;982;-29
2021/07/14 11:06:51;;;;;;;;;;;;;;;20.85;64.00;100628.50;5079143;28;818;-30
2021/07/14 11:09:35;;;;;;;;;;;;;;;20.89;63.88;100632.56;5079163;28;1017;-24
2021/07/14 11:12:02;;;;;;;;;;;;;;;20.84;64.45;100626.81;5079578;28;1979;-28
2021/07/14 11:14:50;;;;;;;;;;;;;;;20.74;64.16;100631.31;5078549;28;864;-31
2021/07/14 11:17:15;;;;;;;;;;;;;;;20.52;64.03;100636.00;5071153;28;1888;-31
2021/07/14 11:19:45;;;;;;;;;;;;;;;20.47;64.13;100630.22;5079144;28;962;-32
2021/07/14 11:22:10;;;;;;;;;;;;;;;20.40;64.74;100625.44;5079494;28;744;-32
2021/07/14 11:24:35;;;;;;;;;;;;;;;20.72;65.59;100628.78;5079051;28;760;-31
2021/07/14 11:27:19;;;;;;;;;;;;;;;21.63;69.30;100631.06;5077717;28;1177;-26
2021/07/14 11:30:17;;;;;;;;;;;;;;;24.60;55.82;100627.00;5070860;28;1206;-27
2021/07/14 11:32:42;;;;;;;;;;;;;;;21.49;62.27;100630.56;5041736;28;1239;-25
2021/07/14 11:35:17;;;;;;;;;;;;;;;20.97;64.20;100636.38;5077906;28;980;-29
2021/07/14 11:37:44;;;;;;;;;;;;;;;20.90;65.13;100634.25;5075533;28;1261;-26
2021/07/14 11:40:18;;;;;;;;;;;;;;;20.91;65.83;100640.44;5078072;28;868;-25
2021/07/14 11:42:50;;;;;;;;;;;;;;;20.96;66.09;100635.53;5078462;28;1408;-34
2021/07/14 11:45:15;;;;;;;;;;;;;;;20.96;66.25;100645.38;5078711;28;799;-28
2021/07/14 11:47:41;;;;;;;;;;;;;;;20.91;66.81;100637.75;5078974;28;819;-28
2021/07/14 11:50:06;;;;;;;;;;;;;;;20.96;66.45;100645.38;5077722;28;931;-27
2021/07/14 11:52:45;;;;;;;;;;;;;;;20.99;66.82;100640.59;5077757;28;1906;-32
2021/07/14 11:55:22;;;;;;;;;;;;;;;20.99;67.19;100640.59;5078638;28;776;-28
2021/07/14 11:57:47;;;;;;;;;;;;;;;21.07;67.46;100633.69;5078097;28;1237;-30
2021/07/14 12:00:13;;;;;;;;;;;;;;;21.08;67.33;100630.88;5078319;28;795;-33
2021/07/14 12:02:38;;;;;;;;;;;;;;;21.01;67.14;100633.28;5078758;28;869;-32
2021/07/14 12:05:09;;;;;;;;;;;;;;;20.99;68.00;100634.38;5076847;28;920;-27
2021/07/14 12:07:39;;;;;;;;;;;;;;;21.01;67.97;100633.28;5078492;28;840;-27
2021/07/14 12:10:04;;;;;;;;;;;;;;;21.06;67.73;100623.97;5059720;28;971;-32
2021/07/14 12:12:29;;;;;;;;;;;;;;;21.15;67.61;100631.94;5060298;28;1918;-34
2021/07/14 12:14:55;;;;;;;;;;;;;;;21.23;67.95;100633.91;5077684;28;796;-31
2021/07/14 12:17:21;;;;;;;;;;;;;;;21.23;67.74;100644.63;5077947;28;1048;-32
2021/07/14 12:19:47;;;;;;;;;;;;;;;21.09;68.55;100629.00;5076478;28;797;-33
2021/07/14 12:22:20;;;;;;;;;;;;;;;21.15;68.25;100639.97;5077946;28;772;-30
2021/07/14 12:25:08;;;;;;;;;;;;;;;21.14;68.79;100626.75;5078473;28;736;-33
2021/07/14 12:27:39;;;;;;;;;;;;;;;21.23;69.51;100625.91;5077474;28;783;-27
2021/07/14 12:30:05;;;;;;;;;;;;;;;21.15;68.74;100629.28;5078102;28;780;-29
2021/07/14 12:32:30;;;;;;;;;;;;;;;21.11;68.30;100622.56;5077398;28;1905;-27
2021/07/14 12:34:56;;;;;;;;;;;;;;;21.04;67.85;100619.63;5077070;28;966;-32
2021/07/14 12:37:21;;;;;;;;;;;;;;;20.96;67.52;100640.88;5078124;28;745;-29
2021/07/14 12:39:46;;;;;;;;;;;;;;;20.99;68.23;100629.03;5077759;28;921;-34
2021/07/14 12:42:12;;;;;;;;;;;;;;;21.04;68.59;100634.81;5059081;28;756;-33
2021/07/14 12:44:38;;;;;;;;;;;;;;;21.19;69.08;100631.69;5076635;28;829;-30
2021/07/14 12:47:13;;;;;;;;;;;;;;;21.17;68.15;100629.13;5077692;28;866;-26
2021/07/14 12:49:38;;;;;;;;;;;;;;;21.13;68.43;100627.75;5077024;28;919;-33
2021/07/14 12:52:04;;;;;;;;;;;;;;;21.16;68.56;100630.97;5077536;28;2057;-28
2021/07/14 12:54:30;;;;;;;;;;;;;;;21.14;69.08;100632.97;5077620;28;759;-29
2021/07/14 12:56:55;;;;;;;;;;;;;;;21.25;68.87;100641.81;5076284;28;1226;-31
2021/07/14 12:59:22;;;;;;;;;;;;;;;21.20;69.08;100638.72;5077519;28;546;-33